Time;durP1;ratioP1;P1;durP2;ratioP2;P2;SDS_P1;SDS_P2;PMS_P1;PMS_P2;Temp;Humidity;BMP_temperature;BMP_pressure;BME280_temperature;BME280_humidity;BME280_pressure;Samples;Min_cycle;Max_cycle;Signal;HPM_P1;HPM_P2
2022/07/12 00:00:10;;;;;;;5.20;3.67;;;;;;;14.00;100.00;101625.75;679191;29;1190;-43
2022/07/12 00:00:31;;;;;;;5.00;3.95;;;;;;;13.96;100.00;101625.78;680342;28;1531;-44
2022/07/12 00:00:51;;;;;;;4.80;3.87;;;;;;;13.95;100.00;101631.03;682207;28;4356;-45
2022/07/12 00:01:11;;;;;;;4.70;3.70;;;;;;;13.99;100.00;101629.28;684752;28;1926;-44
2022/07/12 00:01:32;;;;;;;4.50;3.77;;;;;;;13.94;100.00;101627.56;685422;28;1339;-43
2022/07/12 00:01:53;;;;;;;5.20;3.90;;;;;;;13.92;100.00;101628.44;688012;28;1372;-43
2022/07/12 00:02:13;;;;;;;5.60;3.80;;;;;;;13.93;100.00;101624.94;683907;28;1162;-44
2022/07/12 00:02:34;;;;;;;4.80;3.70;;;;;;;13.95;100.00;101629.28;684821;28;1337;-43
2022/07/12 00:02:54;;;;;;;5.00;4.03;;;;;;;13.95;100.00;101626.66;685001;28;1152;-44
2022/07/12 00:03:14;;;;;;;5.00;4.00;;;;;;;13.95;100.00;101629.28;683967;28;2088;-45
2022/07/12 00:03:35;;;;;;;4.83;4.03;;;;;;;13.94;100.00;101626.66;684619;28;1172;-44
2022/07/12 00:03:55;;;;;;;5.17;4.10;;;;;;;13.91;100.00;101624.91;682478;28;4560;-44
2022/07/12 00:04:15;;;;;;;5.28;4.13;;;;;;;13.89;100.00;101626.69;684866;28;1567;-43
2022/07/12 00:04:36;;;;;;;5.17;4.03;;;;;;;13.88;100.00;101630.19;685258;28;1326;-44
2022/07/12 00:04:56;;;;;;;5.07;4.22;;;;;;;13.82;100.00;101627.59;684748;28;1196;-44
2022/07/12 00:05:17;;;;;;;4.87;3.80;;;;;;;13.81;100.00;101620.56;685431;28;1290;-45
2022/07/12 00:05:37;;;;;;;5.22;3.80;;;;;;;13.83;100.00;101626.72;684376;28;1382;-44
2022/07/12 00:05:58;;;;;;;5.27;3.93;;;;;;;13.86;100.00;101624.06;687730;28;1679;-44
2022/07/12 00:06:19;;;;;;;5.47;3.83;;;;;;;13.92;100.00;101629.28;687675;28;1112;-44
2022/07/12 00:06:39;;;;;;;4.75;3.85;;;;;;;13.90;100.00;101628.44;687738;28;4381;-45
2022/07/12 00:07:00;;;;;;;4.70;3.60;;;;;;;13.89;100.00;101621.41;687478;28;1178;-44
2022/07/12 00:07:20;;;;;;;4.63;3.78;;;;;;;13.90;100.00;101625.81;687942;28;1261;-43
2022/07/12 00:07:40;;;;;;;5.10;3.80;;;;;;;13.92;100.00;101624.03;687876;28;1391;-44
2022/07/12 00:08:01;;;;;;;4.73;3.83;;;;;;;13.93;100.00;101628.41;687886;28;1291;-45
2022/07/12 00:08:22;;;;;;;5.90;3.80;;;;;;;13.91;100.00;101617.03;687111;28;1152;-44
2022/07/12 00:08:42;;;;;;;4.70;3.63;;;;;;;13.93;100.00;101622.31;687311;28;1623;-43
2022/07/12 00:09:04;;;;;;;5.07;3.88;;;;;;;13.91;100.00;101621.41;687645;28;1172;-44
2022/07/12 00:09:24;;;;;;;5.57;3.78;;;;;;;13.91;100.00;101619.66;685436;28;1218;-43
2022/07/12 00:09:45;;;;;;;4.80;3.55;;;;;;;13.88;100.00;101627.56;683320;28;4594;-44
2022/07/12 00:10:05;;;;;;;5.00;3.70;;;;;;;13.87;100.00;101623.16;684785;28;1240;-43
2022/07/12 00:10:26;;;;;;;4.63;3.80;;;;;;;13.85;100.00;101621.44;683808;28;1278;-45
2022/07/12 00:10:46;;;;;;;5.07;4.13;;;;;;;13.78;100.00;101626.69;685272;28;1330;-43
2022/07/12 00:11:06;;;;;;;4.70;4.00;;;;;;;13.75;100.00;101625.84;685005;28;1346;-44
2022/07/12 00:11:27;;;;;;;5.17;4.00;;;;;;;13.68;100.00;101625.00;687581;28;1132;-43
2022/07/12 00:11:47;;;;;;;5.27;4.20;;;;;;;13.62;100.00;101625.00;689475;28;1397;-44
2022/07/12 00:12:09;;;;;;;5.22;4.20;;;;;;;13.57;100.00;101625.00;687854;28;1381;-44
2022/07/12 00:12:29;;;;;;;5.10;4.10;;;;;;;13.58;100.00;101620.63;687085;28;1868;-44
2022/07/12 00:12:50;;;;;;;5.07;4.10;;;;;;;13.56;100.00;101628.50;683496;28;4399;-44
2022/07/12 00:13:10;;;;;;;5.10;4.20;;;;;;;13.58;100.00;101626.78;684963;28;1365;-44
2022/07/12 00:13:31;;;;;;;5.63;3.78;;;;;;;13.60;100.00;101621.50;685574;28;1394;-45
2022/07/12 00:13:51;;;;;;;5.40;3.70;;;;;;;13.56;100.00;101627.66;684201;28;1372;-43
2022/07/12 00:14:11;;;;;;;4.70;3.92;;;;;;;13.54;100.00;101624.13;685065;28;1499;-44
2022/07/12 00:14:32;;;;;;;4.90;4.10;;;;;;;13.59;100.00;101627.63;685041;28;1433;-44
2022/07/12 00:14:52;;;;;;;5.45;4.13;;;;;;;13.62;100.00;101625.00;687937;28;1358;-44
2022/07/12 00:15:13;;;;;;;5.50;3.90;;;;;;;13.69;100.00;101628.47;687454;28;1647;-44
2022/07/12 00:15:34;;;;;;;4.97;3.90;;;;;;;13.72;100.00;101632.00;687789;28;1358;-43
2022/07/12 00:15:54;;;;;;;4.78;3.78;;;;;;;13.77;100.00;101630.19;687336;28;4503;-47
2022/07/12 00:16:14;;;;;;;5.80;4.10;;;;;;;13.74;100.00;101621.47;687089;28;1204;-43
2022/07/12 00:16:35;;;;;;;4.63;4.00;;;;;;;13.71;100.00;101624.13;687774;28;1306;-44
2022/07/12 00:16:55;;;;;;;4.50;3.60;;;;;;;13.67;100.00;101630.25;685325;28;1200;-44
2022/07/12 00:17:16;;;;;;;4.95;3.80;;;;;;;13.63;100.00;101622.34;685465;28;1393;-45
2022/07/12 00:17:38;;;;;;;5.20;3.90;;;;;;;13.66;100.00;101623.25;684806;28;1258;-44
2022/07/12 00:17:58;;;;;;;5.28;3.70;;;;;;;13.68;100.00;101621.47;684342;28;1515;-43
2022/07/12 00:18:19;;;;;;;5.10;3.97;;;;;;;13.68;100.00;101624.09;684859;28;1183;-44
2022/07/12 00:18:39;;;;;;;5.43;4.05;;;;;;;13.66;100.00;101623.25;684825;28;4451;-44
2022/07/12 00:18:59;;;;;;;5.10;4.10;;;;;;;13.62;100.00;101627.63;683888;28;2118;-46
2022/07/12 00:19:20;;;;;;;5.05;4.00;;;;;;;13.58;100.00;101623.25;685286;28;1061;-44
2022/07/12 00:19:40;;;;;;;5.50;3.90;;;;;;;13.55;100.00;101620.63;685867;28;1349;-44
2022/07/12 00:20:01;;;;;;;5.60;4.00;;;;;;;13.51;100.00;101627.63;688031;28;1139;-44
2022/07/12 00:20:22;;;;;;;5.27;3.80;;;;;;;13.47;100.00;101628.50;687346;28;1637;-43
2022/07/12 00:20:42;;;;;;;4.93;3.90;;;;;;;13.47;100.00;101620.63;687431;28;1214;-44
2022/07/12 00:21:02;;;;;;;5.55;4.10;;;;;;;13.49;100.00;101621.53;686658;28;1666;-47
2022/07/12 00:21:23;;;;;;;5.30;4.10;;;;;;;13.50;100.00;101630.25;687642;28;1950;-44
2022/07/12 00:21:43;;;;;;;5.38;4.40;;;;;;;13.46;100.00;101629.41;686945;28;4465;-43
2022/07/12 00:22:04;;;;;;;5.90;4.27;;;;;;;13.47;100.00;101625.03;687316;28;1139;-44
2022/07/12 00:22:28;;;;;;;5.77;4.10;;;;;;;13.49;100.00;101629.41;687696;28;1710;-43
2022/07/12 00:22:48;;;;;;;5.00;3.92;;;;;;;13.53;100.00;101625.03;687216;28;1405;-44
2022/07/12 00:23:08;;;;;;;5.53;4.37;;;;;;;13.54;100.00;101622.41;682948;28;1517;-44
2022/07/12 00:23:29;;;;;;;5.83;4.20;;;;;;;13.54;100.00;101622.41;684887;28;1291;-45
2022/07/12 00:23:49;;;;;;;7.05;4.05;;;;;;;13.51;100.00;101627.63;681837;28;1326;-46
2022/07/12 00:24:10;;;;;;;5.20;4.00;;;;;;;13.49;100.00;101621.53;682122;28;1924;-44
2022/07/12 00:24:31;;;;;;;4.85;4.03;;;;;;;13.52;100.00;101620.66;682739;28;1458;-44
2022/07/12 00:24:51;;;;;;;5.65;4.20;;;;;;;13.48;100.00;101626.78;682290;28;4387;-43
2022/07/12 00:25:12;;;;;;;6.97;4.50;;;;;;;13.47;100.00;101614.50;684217;28;1817;-43
2022/07/12 00:25:32;;;;;;;5.25;4.30;;;;;;;13.43;100.00;101618.88;684365;28;1394;-43
2022/07/12 00:25:52;;;;;;;4.90;4.13;;;;;;;13.41;100.00;101618.03;681316;28;1489;-44
2022/07/12 00:26:13;;;;;;;4.93;4.20;;;;;;;13.39;100.00;101622.41;682257;28;1350;-43
2022/07/12 00:26:33;;;;;;;5.20;4.35;;;;;;;13.38;100.00;101621.53;682475;28;1524;-43
2022/07/12 00:26:53;;;;;;;5.37;4.00;;;;;;;13.35;100.00;101621.53;682721;28;1484;-44
2022/07/12 00:27:14;;;;;;;4.95;4.20;;;;;;;13.33;100.00;101617.13;680861;28;1659;-45
2022/07/12 00:27:34;;;;;;;5.00;4.40;;;;;;;13.31;100.00;101624.16;682422;28;1425;-44
2022/07/12 00:27:55;;;;;;;5.30;4.15;;;;;;;13.28;100.00;101618.00;684840;28;4575;-44
2022/07/12 00:28:16;;;;;;;5.63;4.13;;;;;;;13.27;100.00;101613.63;684856;28;1147;-44
2022/07/12 00:28:36;;;;;;;5.43;4.20;;;;;;;13.32;100.00;101615.38;684989;28;1220;-43
2022/07/12 00:28:57;;;;;;;4.70;3.93;;;;;;;13.32;100.00;101615.38;682549;28;2274;-43
2022/07/12 00:29:17;;;;;;;4.90;4.07;;;;;;;13.33;100.00;101619.75;682395;28;2171;-44
2022/07/12 00:29:38;;;;;;;5.30;4.47;;;;;;;13.36;100.00;101622.41;685521;28;1346;-44
2022/07/12 00:29:58;;;;;;;5.50;4.30;;;;;;;13.37;100.00;101619.78;684963;28;1390;-45
2022/07/12 00:30:19;;;;;;;5.85;4.25;;;;;;;13.37;100.00;101618.91;684738;28;1250;-44
2022/07/12 00:30:39;;;;;;;5.90;4.30;;;;;;;13.32;100.00;101618.88;683975;28;4429;-44
2022/07/12 00:31:00;;;;;;;5.72;4.10;;;;;;;13.28;100.00;101612.75;688223;28;1389;-45
2022/07/12 00:31:20;;;;;;;5.30;4.23;;;;;;;13.26;100.00;101611.91;686986;28;1222;-45
2022/07/12 00:31:41;;;;;;;5.00;4.20;;;;;;;13.27;100.00;101616.25;687093;28;935;-43
2022/07/12 00:32:01;;;;;;;4.60;3.87;;;;;;;13.30;100.00;101612.75;687573;28;1270;-45
2022/07/12 00:32:21;;;;;;;4.88;3.92;;;;;;;13.37;100.00;101613.66;687716;28;1781;-45
2022/07/12 00:32:42;;;;;;;5.30;4.23;;;;;;;13.40;100.00;101613.63;687115;28;3934;-44
2022/07/12 00:33:02;;;;;;;6.80;4.53;;;;;;;13.39;100.00;101617.16;687563;28;1136;-44
2022/07/12 00:33:22;;;;;;;6.23;4.37;;;;;;;13.39;100.00;101617.16;684677;28;1382;-45
2022/07/12 00:33:43;;;;;;;4.70;3.92;;;;;;;13.35;100.00;101613.66;684087;28;4611;-43
2022/07/12 00:34:03;;;;;;;5.03;4.10;;;;;;;13.37;100.00;101617.13;684407;28;1239;-44
2022/07/12 00:34:24;;;;;;;5.30;3.80;;;;;;;13.42;100.00;101617.16;685878;28;1484;-44
2022/07/12 00:34:44;;;;;;;5.00;3.80;;;;;;;13.45;100.00;101623.25;684175;28;1314;-44
2022/07/12 00:35:05;;;;;;;5.23;4.00;;;;;;;13.47;100.00;101610.13;684869;28;1326;-43
2022/07/12 00:35:26;;;;;;;4.90;3.90;;;;;;;13.48;100.00;101611.88;688053;28;1547;-44
2022/07/12 00:35:47;;;;;;;5.23;3.80;;;;;;;13.44;100.00;101610.13;684968;28;1305;-45
2022/07/12 00:36:08;;;;;;;4.50;3.78;;;;;;;13.40;100.00;101603.13;681505;28;1332;-44
2022/07/12 00:36:28;;;;;;;4.82;4.00;;;;;;;13.36;100.00;101611.91;679060;28;1289;-44
2022/07/12 00:36:48;;;;;;;5.00;4.00;;;;;;;13.33;100.00;101611.88;679897;28;4560;-43
2022/07/12 00:37:09;;;;;;;4.88;3.97;;;;;;;13.29;100.00;101621.50;679527;28;1698;-43
2022/07/12 00:37:29;;;;;;;4.80;4.20;;;;;;;13.27;100.00;101616.25;679904;28;1349;-45
2022/07/12 00:37:49;;;;;;;4.97;4.10;;;;;;;13.25;100.00;101618.00;681412;28;1255;-44
2022/07/12 00:38:10;;;;;;;5.25;3.85;;;;;;;13.25;100.00;101617.13;685072;28;1564;-43
2022/07/12 00:38:30;;;;;;;5.40;4.00;;;;;;;13.22;100.00;101615.41;686500;28;1300;-44
2022/07/12 00:38:50;;;;;;;5.28;4.28;;;;;;;13.22;100.00;101615.41;684583;28;1469;-43
2022/07/12 00:39:11;;;;;;;5.07;4.13;;;;;;;13.25;100.00;101617.13;681699;28;1034;-44
2022/07/12 00:39:31;;;;;;;4.88;3.88;;;;;;;13.25;100.00;101618.00;681694;28;1540;-44
2022/07/12 00:39:52;;;;;;;5.50;4.10;;;;;;;13.27;100.00;101618.00;680200;28;4790;-44
2022/07/12 00:40:12;;;;;;;5.70;4.20;;;;;;;13.29;100.00;101619.75;681843;28;1317;-43
2022/07/12 00:40:35;;;;;;;4.90;4.13;;;;;;;13.33;100.00;101623.25;681087;28;1421;-45
2022/07/12 00:40:56;;;;;;;4.80;4.00;;;;;;;13.38;100.00;101620.66;683808;28;1230;-44
2022/07/12 00:41:17;;;;;;;4.85;4.10;;;;;;;13.43;100.00;101618.88;687659;28;2003;-45
2022/07/12 00:41:37;;;;;;;5.18;4.13;;;;;;;13.41;100.00;101618.88;687164;28;1244;-43
2022/07/12 00:41:58;;;;;;;4.60;3.80;;;;;;;13.39;100.00;101623.28;687119;28;1410;-44
2022/07/12 00:42:18;;;;;;;4.97;4.03;;;;;;;13.39;100.00;101611.91;685075;28;1232;-44
2022/07/12 00:42:39;;;;;;;5.30;4.07;;;;;;;13.40;100.00;101616.28;680436;28;4518;-44
2022/07/12 00:42:59;;;;;;;4.80;3.80;;;;;;;13.38;100.00;101616.28;682226;28;1172;-44
2022/07/12 00:43:19;;;;;;;5.30;4.17;;;;;;;13.37;100.00;101616.28;681899;28;1056;-44
2022/07/12 00:43:40;;;;;;;5.33;4.20;;;;;;;13.34;100.00;101613.63;682378;28;1165;-44
2022/07/12 00:44:00;;;;;;;5.30;4.30;;;;;;;13.33;100.00;101617.13;682640;28;1331;-44
2022/07/12 00:44:21;;;;;;;5.87;4.23;;;;;;;13.26;100.00;101616.25;684451;28;1167;-45
2022/07/12 00:44:41;;;;;;;5.43;4.35;;;;;;;13.21;100.00;101618.88;688064;28;1238;-45
2022/07/12 00:45:03;;;;;;;6.10;4.20;;;;;;;13.15;100.00;101618.88;687801;28;1709;-44
2022/07/12 00:45:23;;;;;;;5.00;4.00;;;;;;;13.14;100.00;101622.41;687399;28;1361;-43
2022/07/12 00:45:44;;;;;;;5.00;4.10;;;;;;;13.12;100.00;101616.25;686952;28;4541;-43
2022/07/12 00:46:04;;;;;;;5.27;4.03;;;;;;;13.12;100.00;101624.13;687408;28;1393;-43
2022/07/12 00:46:25;;;;;;;5.70;4.50;;;;;;;13.11;100.00;101615.41;687059;28;1127;-45
2022/07/12 00:46:45;;;;;;;5.60;4.37;;;;;;;13.13;100.00;101615.38;685387;28;1231;-44
2022/07/12 00:47:06;;;;;;;5.18;4.38;;;;;;;13.20;100.00;101611.88;685067;28;1421;-45
2022/07/12 00:47:39;;;;;;;6.27;4.40;;;;;;;13.26;100.00;101614.53;682097;28;1381;-43
2022/07/12 00:48:01;;;;;;;5.57;4.50;;;;;;;13.31;100.00;101608.38;681691;28;1222;-43
2022/07/12 00:48:21;;;;;;;5.43;4.40;;;;;;;13.34;100.00;101616.25;681798;28;1147;-45
2022/07/12 00:48:41;;;;;;;6.00;4.50;;;;;;;13.36;100.00;101620.66;683232;28;4604;-44
2022/07/12 00:49:02;;;;;;;5.53;4.10;;;;;;;13.38;100.00;101618.03;685308;28;1322;-43
2022/07/12 00:49:24;;;;;;;5.10;4.00;;;;;;;13.40;100.00;101616.28;686620;28;1238;-45
2022/07/12 00:49:44;;;;;;;4.82;3.80;;;;;;;13.42;100.00;101610.16;683442;28;1367;-44
2022/07/12 00:50:10;;;;;;;5.17;4.00;;;;;;;13.44;100.00;101611.03;683179;28;1359;-46
2022/07/12 00:50:30;;;;;;;4.80;3.70;;;;;;;13.47;100.00;101609.25;682302;28;1629;-44
2022/07/12 00:50:51;;;;;;;4.90;3.90;;;;;;;13.45;100.00;101614.53;684051;28;1367;-44
2022/07/12 00:51:12;;;;;;;5.18;4.00;;;;;;;13.41;100.00;101615.41;684106;28;1312;-45
2022/07/12 00:51:32;;;;;;;5.90;3.92;;;;;;;13.37;100.00;101619.78;684895;28;1350;-44
2022/07/12 00:51:54;;;;;;;5.93;4.13;;;;;;;13.33;100.00;101611.88;687650;28;4465;-44
2022/07/12 00:52:14;;;;;;;5.38;4.20;;;;;;;13.25;100.00;101607.50;686806;28;1599;-45
2022/07/12 00:52:36;;;;;;;5.10;4.20;;;;;;;13.23;100.00;101616.25;687146;28;1860;-43
2022/07/12 00:52:57;;;;;;;5.53;4.40;;;;;;;13.22;100.00;101615.41;686725;28;1215;-44
2022/07/12 00:53:23;;;;;;;5.63;4.10;;;;;;;13.25;100.00;101617.13;687060;28;1478;-45
2022/07/12 00:53:44;;;;;;;5.80;4.00;;;;;;;13.27;100.00;101613.63;687934;28;1319;-44
2022/07/12 00:54:05;;;;;;;6.25;3.97;;;;;;;13.28;100.00;101606.63;687124;28;1256;-44
2022/07/12 00:54:25;;;;;;;7.00;4.15;;;;;;;13.29;100.00;101606.63;683653;28;1331;-43
2022/07/12 00:54:45;;;;;;;6.50;4.20;;;;;;;13.28;100.00;101611.88;685100;28;4652;-44
2022/07/12 00:55:07;;;;;;;5.43;4.25;;;;;;;13.23;100.00;101611.88;684212;28;1702;-45
2022/07/12 00:55:27;;;;;;;5.10;4.35;;;;;;;13.17;100.00;101604.00;685140;28;1307;-44
2022/07/12 00:55:48;;;;;;;5.00;4.30;;;;;;;13.11;100.00;101607.53;683978;28;1318;-45
2022/07/12 00:56:09;;;;;;;6.50;4.33;;;;;;;13.11;100.00;101604.00;684947;28;1341;-44
2022/07/12 00:56:29;;;;;;;5.82;4.20;;;;;;;13.10;100.00;101600.50;686862;28;1156;-43
2022/07/12 00:56:49;;;;;;;5.18;4.22;;;;;;;13.04;100.00;101610.13;687914;28;1191;-44
2022/07/12 00:57:10;;;;;;;4.97;4.10;;;;;;;12.93;100.00;101605.78;686477;28;1595;-44
2022/07/12 00:57:32;;;;;;;5.30;4.50;;;;;;;12.87;100.00;101599.63;685028;28;1396;-43
2022/07/12 00:57:53;;;;;;;5.43;4.53;;;;;;;12.86;100.00;101601.41;683300;28;5441;-43
2022/07/12 00:58:13;;;;;;;5.45;4.47;;;;;;;12.88;100.00;101604.03;684994;28;1251;-44
2022/07/12 00:58:33;;;;;;;5.83;4.60;;;;;;;12.87;100.00;101600.50;684648;28;1592;-44
2022/07/12 00:58:54;;;;;;;6.10;4.97;;;;;;;12.84;100.00;101599.63;685295;28;1445;-43
2022/07/12 00:59:14;;;;;;;5.97;4.68;;;;;;;12.84;100.00;101603.13;685009;28;1627;-44
2022/07/12 00:59:35;;;;;;;5.67;4.33;;;;;;;12.86;100.00;101598.78;686712;28;1256;-43
2022/07/12 00:59:55;;;;;;;5.30;4.30;;;;;;;12.87;100.00;101597.88;687294;28;1180;-45
2022/07/12 01:00:25;;;;;;;5.13;4.37;;;;;;;12.86;100.00;101593.53;685268;28;1219;-43
2022/07/12 01:00:45;;;;;;;6.82;4.10;;;;;;;12.85;100.00;101593.50;684154;28;5469;-44
2022/07/12 01:01:05;;;;;;;5.27;4.10;;;;;;;12.87;100.00;101597.00;687683;28;1199;-45
2022/07/12 01:01:26;;;;;;;5.50;4.30;;;;;;;12.88;100.00;101599.63;687229;28;1996;-44
2022/07/12 01:01:46;;;;;;;5.43;4.20;;;;;;;12.90;100.00;101590.03;683229;28;1470;-44
2022/07/12 01:02:07;;;;;;;5.05;4.20;;;;;;;12.92;100.00;101595.28;682130;28;1742;-44
2022/07/12 01:02:28;;;;;;;5.72;4.20;;;;;;;12.95;100.00;101590.88;683181;28;1370;-44
2022/07/12 01:02:50;;;;;;;5.70;4.30;;;;;;;13.02;100.00;101590.91;682357;28;2219;-44
2022/07/12 01:03:10;;;;;;;5.60;4.07;;;;;;;13.04;100.00;101589.13;684150;28;1517;-44
2022/07/12 01:03:31;;;;;;;5.47;4.05;;;;;;;13.04;100.00;101597.00;683198;28;2142;-45
2022/07/12 01:03:52;;;;;;;5.17;4.10;;;;;;;13.01;100.00;101591.75;687463;28;4562;-43
2022/07/12 01:04:12;;;;;;;5.30;4.40;;;;;;;13.01;100.00;101590.00;686295;28;1346;-47
2022/07/12 01:04:34;;;;;;;5.45;4.30;;;;;;;13.01;100.00;101584.75;687470;28;1678;-43
2022/07/12 01:04:54;;;;;;;5.20;4.13;;;;;;;12.99;100.00;101586.53;684880;28;1680;-43
2022/07/12 01:05:15;;;;;;;5.60;4.50;;;;;;;12.92;100.00;101588.25;683708;28;1188;-44
2022/07/12 01:05:35;;;;;;;5.15;4.40;;;;;;;12.89;100.00;101590.91;684777;28;1231;-44
2022/07/12 01:05:56;;;;;;;5.33;4.23;;;;;;;12.89;100.00;101592.63;684924;28;1204;-44
2022/07/12 01:06:19;;;;;;;5.57;4.27;;;;;;;12.89;100.00;101592.63;683872;28;1156;-44
2022/07/12 01:06:40;;;;;;;5.00;4.13;;;;;;;12.90;100.00;101587.41;685393;28;5503;-44
2022/07/12 01:07:00;;;;;;;5.60;4.23;;;;;;;12.88;100.00;101590.91;687739;28;1160;-43
2022/07/12 01:07:23;;;;;;;5.77;4.63;;;;;;;12.82;100.00;101588.25;687469;28;1264;-44
2022/07/12 01:07:44;;;;;;;5.45;4.35;;;;;;;12.78;100.00;101595.25;686653;28;1529;-44
2022/07/12 01:08:06;;;;;;;5.43;4.30;;;;;;;12.81;100.00;101592.63;684817;28;1137;-43
2022/07/12 01:08:27;;;;;;;5.38;4.40;;;;;;;12.81;100.00;101587.38;684633;28;1240;-43
2022/07/12 01:08:48;;;;;;;5.35;4.10;;;;;;;12.84;100.00;101594.38;684588;28;1263;-43
2022/07/12 01:09:10;;;;;;;5.25;4.10;;;;;;;12.85;100.00;101594.38;683860;28;1195;-44
2022/07/12 01:09:31;;;;;;;5.78;4.15;;;;;;;12.90;100.00;101597.91;684381;28;1443;-46
2022/07/12 01:09:55;;;;;;;5.80;4.32;;;;;;;12.94;100.00;101597.03;684912;28;4866;-43
2022/07/12 01:10:16;;;;;;;5.28;4.40;;;;;;;12.97;100.00;101593.50;680804;28;1814;-44
2022/07/12 01:10:38;;;;;;;4.93;4.05;;;;;;;13.01;100.00;101594.38;683421;28;1241;-44
2022/07/12 01:10:59;;;;;;;5.25;4.13;;;;;;;13.01;100.00;101599.63;682015;28;1256;-45
2022/07/12 01:11:20;;;;;;;5.15;4.10;;;;;;;13.01;100.00;101592.63;679604;28;1197;-44
2022/07/12 01:11:41;;;;;;;5.40;4.15;;;;;;;13.07;100.00;101599.63;678885;28;1240;-45
2022/07/12 01:12:03;;;;;;;5.87;4.23;;;;;;;13.04;100.00;101594.38;680687;28;1366;-43
2022/07/12 01:12:24;;;;;;;4.93;3.97;;;;;;;13.02;100.00;101594.38;681865;28;1168;-43
2022/07/12 01:12:45;;;;;;;5.10;4.10;;;;;;;12.98;100.00;101604.91;679195;28;4574;-44
2022/07/12 01:13:06;;;;;;;5.40;4.13;;;;;;;12.92;100.00;101601.38;682632;28;1590;-45
2022/07/12 01:13:26;;;;;;;5.65;4.20;;;;;;;12.86;100.00;101595.25;682458;28;1216;-43
2022/07/12 01:13:48;;;;;;;5.70;4.40;;;;;;;12.77;100.00;101596.13;682668;28;1208;-43
2022/07/12 01:14:09;;;;;;;5.18;4.10;;;;;;;12.74;100.00;101597.00;681835;28;1307;-43
2022/07/12 01:14:30;;;;;;;5.50;4.40;;;;;;;12.75;100.00;101595.22;683469;28;1303;-43
2022/07/12 01:14:52;;;;;;;5.35;4.28;;;;;;;12.77;100.00;101590.88;684550;28;1588;-43
2022/07/12 01:15:13;;;;;;;4.82;3.90;;;;;;;12.79;100.00;101594.38;685277;28;1575;-44
2022/07/12 01:15:34;;;;;;;5.20;4.30;;;;;;;12.78;100.00;101597.88;687268;28;1655;-44
2022/07/12 01:15:54;;;;;;;4.85;4.22;;;;;;;12.77;100.00;101593.50;682032;28;4573;-44
2022/07/12 01:16:16;;;;;;;6.10;4.40;;;;;;;12.74;100.00;101594.38;681044;28;1133;-45
2022/07/12 01:16:37;;;;;;;5.25;4.45;;;;;;;12.73;100.00;101595.25;679280;28;1438;-43
2022/07/12 01:16:58;;;;;;;5.22;3.90;;;;;;;12.75;100.00;101592.63;678854;28;1209;-44
2022/07/12 01:17:20;;;;;;;4.78;3.97;;;;;;;12.78;100.00;101597.88;678655;28;1200;-43
2022/07/12 01:17:43;;;;;;;4.88;3.88;;;;;;;12.83;100.00;101585.63;680109;28;1512;-43
2022/07/12 01:18:04;;;;;;;5.10;4.10;;;;;;;12.88;100.00;101597.00;682041;28;1310;-45
2022/07/12 01:18:27;;;;;;;5.35;3.90;;;;;;;12.88;100.00;101589.13;683436;28;1058;-44
2022/07/12 01:18:47;;;;;;;5.13;3.92;;;;;;;12.87;100.00;101595.25;683962;28;4342;-44
2022/07/12 01:19:17;;;;;;;5.60;4.23;;;;;;;12.85;100.00;101598.75;687054;28;1611;-44
2022/07/12 01:19:38;;;;;;;4.90;4.00;;;;;;;12.81;100.00;101592.63;687353;28;1847;-44
2022/07/12 01:19:59;;;;;;;5.03;3.92;;;;;;;12.77;100.00;101589.13;688366;28;1405;-43
2022/07/12 01:20:20;;;;;;;5.35;3.95;;;;;;;12.79;100.00;101594.38;687794;28;1203;-43
2022/07/12 01:20:41;;;;;;;5.20;3.93;;;;;;;12.79;100.00;101586.50;685098;28;1246;-46
2022/07/12 01:21:03;;;;;;;5.17;4.17;;;;;;;12.85;100.00;101594.38;684593;28;1521;-43
2022/07/12 01:21:27;;;;;;;5.22;3.85;;;;;;;12.87;100.00;101590.00;684569;28;1984;-43
2022/07/12 01:21:48;;;;;;;5.18;4.00;;;;;;;12.87;100.00;101587.38;684236;28;4488;-43
2022/07/12 01:22:10;;;;;;;5.15;3.85;;;;;;;12.85;100.00;101594.38;684996;28;1449;-46
2022/07/12 01:22:32;;;;;;;4.63;3.55;;;;;;;12.86;100.00;101583.03;685301;28;1139;-45
2022/07/12 01:23:00;;;;;;;4.82;3.83;;;;;;;12.86;100.00;101587.38;681615;28;1314;-44
2022/07/12 01:23:23;;;;;;;4.60;3.85;;;;;;;12.84;100.00;101592.63;681788;28;1767;-44
2022/07/12 01:23:45;;;;;;;5.15;4.10;;;;;;;12.80;100.00;101590.00;681410;28;1375;-44
2022/07/12 01:24:08;;;;;;;5.40;4.00;;;;;;;12.73;100.00;101595.25;682215;28;1289;-44
2022/07/12 01:24:28;;;;;;;5.15;4.13;;;;;;;12.66;100.00;101587.38;683688;28;1323;-43
2022/07/12 01:24:49;;;;;;;5.40;4.20;;;;;;;12.58;100.00;101588.22;682960;28;4521;-44
2022/07/12 01:25:09;;;;;;;5.38;4.30;;;;;;;12.55;100.00;101595.22;684593;28;1343;-44
2022/07/12 01:25:30;;;;;;;5.30;4.40;;;;;;;12.50;100.00;101597.84;684924;28;1349;-43
2022/07/12 01:25:50;;;;;;;5.95;4.28;;;;;;;12.49;100.00;101588.22;684930;28;1127;-43
2022/07/12 01:26:11;;;;;;;5.60;4.27;;;;;;;12.52;100.00;101589.97;683907;28;1446;-44
2022/07/12 01:26:32;;;;;;;5.10;4.33;;;;;;;12.55;100.00;101590.84;684878;28;1570;-44
2022/07/12 01:26:53;;;;;;;5.23;4.10;;;;;;;12.60;100.00;101593.50;685499;28;1556;-44
2022/07/12 01:27:13;;;;;;;5.45;4.10;;;;;;;12.67;100.00;101591.72;684123;28;1476;-43
2022/07/12 01:27:34;;;;;;;5.20;3.83;;;;;;;12.71;100.00;101590.84;683880;28;1550;-43
2022/07/12 01:27:54;;;;;;;4.70;3.80;;;;;;;12.68;100.00;101598.72;684131;28;4445;-44
2022/07/12 01:28:15;;;;;;;5.40;4.10;;;;;;;12.70;100.00;101594.38;682325;28;1474;-43
2022/07/12 01:28:35;;;;;;;5.03;4.10;;;;;;;12.67;100.00;101597.88;682250;28;1442;-44
2022/07/12 01:28:57;;;;;;;4.80;4.10;;;;;;;12.68;100.00;101596.09;684616;28;3668;-44
2022/07/12 01:29:17;;;;;;;4.75;3.90;;;;;;;12.68;100.00;101590.84;684972;28;1212;-44
2022/07/12 01:29:39;;;;;;;5.18;4.03;;;;;;;12.65;100.00;101590.88;684970;28;1476;-43
2022/07/12 01:30:03;;;;;;;5.20;4.30;;;;;;;12.67;100.00;101587.38;684707;28;1665;-45
2022/07/12 01:30:24;;;;;;;5.07;3.80;;;;;;;12.71;100.00;101594.38;687737;28;1160;-44
2022/07/12 01:30:46;;;;;;;5.03;3.80;;;;;;;12.69;100.00;101590.84;686842;28;4340;-44
2022/07/12 01:31:07;;;;;;;4.50;3.72;;;;;;;12.70;100.00;101594.38;683181;28;1498;-45
2022/07/12 01:31:27;;;;;;;4.88;3.92;;;;;;;12.74;100.00;101588.25;682664;28;1399;-43
2022/07/12 01:31:48;;;;;;;4.83;3.90;;;;;;;12.76;100.00;101589.13;682305;28;1363;-44
2022/07/12 01:32:24;;;;;;;4.90;4.00;;;;;;;12.73;100.00;101590.00;680784;28;1974;-44
2022/07/12 01:32:45;;;;;;;5.40;4.22;;;;;;;12.71;100.00;101588.22;680737;28;1149;-44
2022/07/12 01:33:06;;;;;;;5.28;4.10;;;;;;;12.70;100.00;101590.00;683526;28;1210;-43
2022/07/12 01:33:26;;;;;;;5.78;3.90;;;;;;;12.64;100.00;101591.72;684470;28;1641;-43
2022/07/12 01:33:47;;;;;;;5.25;3.97;;;;;;;12.64;100.00;101584.75;683351;28;4467;-44
2022/07/12 01:34:08;;;;;;;5.97;4.00;;;;;;;12.64;100.00;101590.00;683898;28;1355;-43
2022/07/12 01:34:29;;;;;;;5.95;4.22;;;;;;;12.62;100.00;101586.47;685550;28;1244;-46
2022/07/12 01:34:57;;;;;;;5.90;4.20;;;;;;;12.61;100.00;101587.34;684937;28;1204;-44
2022/07/12 01:35:18;;;;;;;5.10;4.20;;;;;;;12.61;100.00;101589.97;681345;28;1607;-43
2022/07/12 01:35:39;;;;;;;5.10;4.10;;;;;;;12.64;100.00;101584.75;681966;28;1367;-43
2022/07/12 01:36:00;;;;;;;5.93;4.30;;;;;;;12.70;100.00;101594.38;680971;28;1306;-43
2022/07/12 01:36:20;;;;;;;5.00;4.03;;;;;;;12.67;100.00;101595.25;681486;28;1180;-43
2022/07/12 01:36:42;;;;;;;4.60;3.73;;;;;;;12.64;100.00;101599.59;682811;28;4439;-44
2022/07/12 01:37:02;;;;;;;4.90;4.07;;;;;;;12.62;100.00;101596.13;685455;28;1314;-44
2022/07/12 01:37:25;;;;;;;5.10;4.07;;;;;;;12.59;100.00;101600.47;686809;28;1313;-44
2022/07/12 01:37:46;;;;;;;5.40;4.18;;;;;;;12.56;100.00;101592.59;686719;28;1868;-43
2022/07/12 01:38:07;;;;;;;5.82;4.40;;;;;;;12.56;100.00;101591.72;687742;28;1292;-44
2022/07/12 01:38:27;;;;;;;6.13;4.28;;;;;;;12.54;100.00;101596.94;687374;28;1345;-43
2022/07/12 01:38:48;;;;;;;6.07;4.20;;;;;;;12.54;100.00;101596.94;687261;28;1370;-44
2022/07/12 01:39:08;;;;;;;5.13;4.32;;;;;;;12.54;100.00;101604.81;687265;28;1381;-45